sensor_id;sensor_type;location;lat;lon;timestamp;pressure;altitude;pressure_sealevel;temperature
68911;BMP180;55953;51.650;-0.522;2023-04-15T00:02:19;100007.40;;;7.90
68911;BMP180;55953;51.650;-0.522;2023-04-15T00:04:48;100013.60;;;7.90
68911;BMP180;55953;51.650;-0.522;2023-04-15T00:07:16;100011.80;;;7.82
68911;BMP180;55953;51.650;-0.522;2023-04-15T00:09:44;100016.40;;;7.90
68911;BMP180;55953;51.650;-0.522;2023-04-15T00:12:12;100018.80;;;7.88
68911;BMP180;55953;51.650;-0.522;2023-04-15T00:14:40;100021.80;;;7.80
68911;BMP180;55953;51.650;-0.522;2023-04-15T00:17:08;100026.80;;;7.80
68911;BMP180;55953;51.650;-0.522;2023-04-15T00:19:36;100027.60;;;7.80
68911;BMP180;55953;51.650;-0.522;2023-04-15T00:22:04;100036.00;;;7.82
68911;BMP180;55953;51.650;-0.522;2023-04-15T00:24:32;100034.00;;;7.86
68911;BMP180;55953;51.650;-0.522;2023-04-15T00:27:00;100035.40;;;7.90
68911;BMP180;55953;51.650;-0.522;2023-04-15T00:29:29;100037.60;;;7.90
68911;BMP180;55953;51.650;-0.522;2023-04-15T00:31:57;100041.00;;;7.80
68911;BMP180;55953;51.650;-0.522;2023-04-15T00:34:26;100046.60;;;7.80
68911;BMP180;55953;51.650;-0.522;2023-04-15T00:36:54;100042.80;;;7.80
68911;BMP180;55953;51.650;-0.522;2023-04-15T00:39:22;100043.80;;;7.80
68911;BMP180;55953;51.650;-0.522;2023-04-15T00:41:50;100048.20;;;7.78
68911;BMP180;55953;51.650;-0.522;2023-04-15T00:44:19;100048.80;;;7.76
68911;BMP180;55953;51.650;-0.522;2023-04-15T00:46:47;100047.80;;;7.78
68911;BMP180;55953;51.650;-0.522;2023-04-15T00:49:17;100051.00;;;7.76
68911;BMP180;55953;51.650;-0.522;2023-04-15T00:51:45;100051.60;;;7.74
68911;BMP180;55953;51.650;-0.522;2023-04-15T00:54:13;100052.20;;;7.78
68911;BMP180;55953;51.650;-0.522;2023-04-15T00:56:43;100059.00;;;7.80
68911;BMP180;55953;51.650;-0.522;2023-04-15T00:59:13;100056.20;;;7.76
68911;BMP180;55953;51.650;-0.522;2023-04-15T01:01:43;100067.60;;;7.72
68911;BMP180;55953;51.650;-0.522;2023-04-15T01:04:11;100063.20;;;7.70
68911;BMP180;55953;51.650;-0.522;2023-04-15T01:06:39;100077.80;;;7.70
68911;BMP180;55953;51.650;-0.522;2023-04-15T01:09:07;100079.40;;;7.70
68911;BMP180;55953;51.650;-0.522;2023-04-15T01:11:35;100082.80;;;7.70
68911;BMP180;55953;51.650;-0.522;2023-04-15T01:14:03;100085.00;;;7.70
68911;BMP180;55953;51.650;-0.522;2023-04-15T01:16:31;100086.20;;;7.60
68911;BMP180;55953;51.650;-0.522;2023-04-15T01:18:59;100087.60;;;7.62
68911;BMP180;55953;51.650;-0.522;2023-04-15T01:21:28;100088.40;;;7.60
68911;BMP180;55953;51.650;-0.522;2023-04-15T01:23:56;100098.80;;;7.60
68911;BMP180;55953;51.650;-0.522;2023-04-15T01:26:25;100097.00;;;7.60
68911;BMP180;55953;51.650;-0.522;2023-04-15T01:28:54;100105.40;;;7.60
68911;BMP180;55953;51.650;-0.522;2023-04-15T01:31:23;100110.40;;;7.60
68911;BMP180;55953;51.650;-0.522;2023-04-15T01:33:51;100113.20;;;7.50
68911;BMP180;55953;51.650;-0.522;2023-04-15T01:36:19;100113.60;;;7.50
68911;BMP180;55953;51.650;-0.522;2023-04-15T01:38:47;100120.00;;;7.50
68911;BMP180;55953;51.650;-0.522;2023-04-15T01:41:15;100126.20;;;7.50
68911;BMP180;55953;51.650;-0.522;2023-04-15T01:43:44;100129.80;;;7.48
68911;BMP180;55953;51.650;-0.522;2023-04-15T01:46:12;100134.60;;;7.46
68911;BMP180;55953;51.650;-0.522;2023-04-15T01:48:40;100134.40;;;7.42
68911;BMP180;55953;51.650;-0.522;2023-04-15T01:51:08;100138.40;;;7.40
68911;BMP180;55953;51.650;-0.522;2023-04-15T01:53:36;100145.00;;;7.40
68911;BMP180;55953;51.650;-0.522;2023-04-15T01:56:04;100143.80;;;7.40
68911;BMP180;55953;51.650;-0.522;2023-04-15T01:58:34;100150.20;;;7.38
68911;BMP180;55953;51.650;-0.522;2023-04-15T02:01:02;100152.20;;;7.38
68911;BMP180;55953;51.650;-0.522;2023-04-15T02:03:32;100150.60;;;7.32
68911;BMP180;55953;51.650;-0.522;2023-04-15T02:06:00;100152.00;;;7.30
68911;BMP180;55953;51.650;-0.522;2023-04-15T02:08:29;100150.20;;;7.30
68911;BMP180;55953;51.650;-0.522;2023-04-15T02:10:57;100158.00;;;7.28
68911;BMP180;55953;51.650;-0.522;2023-04-15T02:13:25;100156.40;;;7.20
68911;BMP180;55953;51.650;-0.522;2023-04-15T02:15:54;100165.60;;;7.20
68911;BMP180;55953;51.650;-0.522;2023-04-15T02:18:22;100168.00;;;7.20
68911;BMP180;55953;51.650;-0.522;2023-04-15T02:20:53;100171.60;;;7.20
68911;BMP180;55953;51.650;-0.522;2023-04-15T02:23:20;100174.80;;;7.20
68911;BMP180;55953;51.650;-0.522;2023-04-15T02:25:48;100176.00;;;7.18
68911;BMP180;55953;51.650;-0.522;2023-04-15T02:28:20;100175.60;;;7.20
68911;BMP180;55953;51.650;-0.522;2023-04-15T02:30:48;100174.80;;;7.10
68911;BMP180;55953;51.650;-0.522;2023-04-15T02:33:20;100183.20;;;7.10
68911;BMP180;55953;51.650;-0.522;2023-04-15T02:35:48;100185.20;;;7.00
68911;BMP180;55953;51.650;-0.522;2023-04-15T02:38:16;100188.20;;;7.00
68911;BMP180;55953;51.650;-0.522;2023-04-15T02:40:44;100190.80;;;7.02
68911;BMP180;55953;51.650;-0.522;2023-04-15T02:43:13;100197.80;;;7.02
68911;BMP180;55953;51.650;-0.522;2023-04-15T02:45:41;100198.00;;;7.10
68911;BMP180;55953;51.650;-0.522;2023-04-15T02:48:10;100200.60;;;7.10
68911;BMP180;55953;51.650;-0.522;2023-04-15T02:50:38;100205.40;;;7.10
68911;BMP180;55953;51.650;-0.522;2023-04-15T02:53:08;100207.20;;;7.10
68911;BMP180;55953;51.650;-0.522;2023-04-15T02:55:36;100215.80;;;7.10
68911;BMP180;55953;51.650;-0.522;2023-04-15T02:58:03;100220.00;;;7.10
68911;BMP180;55953;51.650;-0.522;2023-04-15T03:00:32;100220.40;;;7.10
68911;BMP180;55953;51.650;-0.522;2023-04-15T03:03:04;100220.40;;;7.10
68911;BMP180;55953;51.650;-0.522;2023-04-15T03:05:32;100218.00;;;7.10
68911;BMP180;55953;51.650;-0.522;2023-04-15T03:08:01;100220.60;;;7.10
68911;BMP180;55953;51.650;-0.522;2023-04-15T03:10:29;100217.40;;;7.10
68911;BMP180;55953;51.650;-0.522;2023-04-15T03:12:57;100222.20;;;7.10
68911;BMP180;55953;51.650;-0.522;2023-04-15T03:15:25;100227.40;;;7.10
68911;BMP180;55953;51.650;-0.522;2023-04-15T03:17:54;100228.00;;;7.10
68911;BMP180;55953;51.650;-0.522;2023-04-15T03:20:22;100241.00;;;7.08
68911;BMP180;55953;51.650;-0.522;2023-04-15T03:22:50;100247.40;;;7.02
68911;BMP180;55953;51.650;-0.522;2023-04-15T03:25:19;100245.40;;;7.00
68911;BMP180;55953;51.650;-0.522;2023-04-15T03:27:46;100257.20;;;7.02
68911;BMP180;55953;51.650;-0.522;2023-04-15T03:30:14;100256.80;;;7.10
68911;BMP180;55953;51.650;-0.522;2023-04-15T03:32:43;100268.20;;;7.10
68911;BMP180;55953;51.650;-0.522;2023-04-15T03:35:10;100268.20;;;7.10
68911;BMP180;55953;51.650;-0.522;2023-04-15T03:37:39;100271.00;;;7.10
68911;BMP180;55953;51.650;-0.522;2023-04-15T03:40:07;100276.40;;;7.10
68911;BMP180;55953;51.650;-0.522;2023-04-15T03:42:36;100277.80;;;7.10
68911;BMP180;55953;51.650;-0.522;2023-04-15T03:45:04;100281.40;;;7.10
68911;BMP180;55953;51.650;-0.522;2023-04-15T03:47:33;100287.20;;;7.10
68911;BMP180;55953;51.650;-0.522;2023-04-15T03:50:00;100285.60;;;7.10
68911;BMP180;55953;51.650;-0.522;2023-04-15T03:52:28;100289.80;;;7.12
68911;BMP180;55953;51.650;-0.522;2023-04-15T03:54:56;100294.20;;;7.14
68911;BMP180;55953;51.650;-0.522;2023-04-15T03:57:24;100300.80;;;7.20
68911;BMP180;55953;51.650;-0.522;2023-04-15T03:59:52;100309.00;;;7.20
68911;BMP180;55953;51.650;-0.522;2023-04-15T04:02:20;100309.40;;;7.20
68911;BMP180;55953;51.650;-0.522;2023-04-15T04:04:48;100310.00;;;7.20
68911;BMP180;55953;51.650;-0.522;2023-04-15T04:07:16;100315.40;;;7.20
68911;BMP180;55953;51.650;-0.522;2023-04-15T04:09:44;100322.60;;;7.20
68911;BMP180;55953;51.650;-0.522;2023-04-15T04:12:14;100318.20;;;7.20
68911;BMP180;55953;51.650;-0.522;2023-04-15T04:14:42;100321.80;;;7.20
68911;BMP180;55953;51.650;-0.522;2023-04-15T04:17:10;100324.20;;;7.20
68911;BMP180;55953;51.650;-0.522;2023-04-15T04:19:38;100336.20;;;7.22
68911;BMP180;55953;51.650;-0.522;2023-04-15T04:22:06;100339.00;;;7.24
68911;BMP180;55953;51.650;-0.522;2023-04-15T04:24:34;100344.00;;;7.20
68911;BMP180;55953;51.650;-0.522;2023-04-15T04:27:02;100348.20;;;7.20
68911;BMP180;55953;51.650;-0.522;2023-04-15T04:29:29;100355.00;;;7.28
68911;BMP180;55953;51.650;-0.522;2023-04-15T04:31:57;100357.80;;;7.22
68911;BMP180;55953;51.650;-0.522;2023-04-15T04:34:25;100366.80;;;7.28
68911;BMP180;55953;51.650;-0.522;2023-04-15T04:36:53;100373.80;;;7.24
68911;BMP180;55953;51.650;-0.522;2023-04-15T04:39:21;100380.20;;;7.20
68911;BMP180;55953;51.650;-0.522;2023-04-15T04:41:49;100381.60;;;7.20
68911;BMP180;55953;51.650;-0.522;2023-04-15T04:44:19;100380.20;;;7.20
68911;BMP180;55953;51.650;-0.522;2023-04-15T04:46:46;100385.40;;;7.20
68911;BMP180;55953;51.650;-0.522;2023-04-15T04:49:14;100390.00;;;7.20
68911;BMP180;55953;51.650;-0.522;2023-04-15T04:51:42;100386.40;;;7.22
68911;BMP180;55953;51.650;-0.522;2023-04-15T04:54:10;100393.80;;;7.24
68911;BMP180;55953;51.650;-0.522;2023-04-15T04:56:38;100400.60;;;7.22
68911;BMP180;55953;51.650;-0.522;2023-04-15T04:59:06;100410.20;;;7.30
68911;BMP180;55953;51.650;-0.522;2023-04-15T05:01:34;100421.80;;;7.30
68911;BMP180;55953;51.650;-0.522;2023-04-15T05:04:02;100424.60;;;7.30
68911;BMP180;55953;51.650;-0.522;2023-04-15T05:06:32;100432.40;;;7.30
68911;BMP180;55953;51.650;-0.522;2023-04-15T05:09:00;100437.20;;;7.32
68911;BMP180;55953;51.650;-0.522;2023-04-15T05:11:28;100438.80;;;7.30
68911;BMP180;55953;51.650;-0.522;2023-04-15T05:13:56;100446.60;;;7.30
68911;BMP180;55953;51.650;-0.522;2023-04-15T05:16:26;100449.40;;;7.32
68911;BMP180;55953;51.650;-0.522;2023-04-15T05:18:53;100454.40;;;7.40
68911;BMP180;55953;51.650;-0.522;2023-04-15T05:21:22;100466.60;;;7.36
68911;BMP180;55953;51.650;-0.522;2023-04-15T05:23:50;100470.60;;;7.40
68911;BMP180;55953;51.650;-0.522;2023-04-15T05:26:18;100473.40;;;7.38
68911;BMP180;55953;51.650;-0.522;2023-04-15T05:28:45;100481.60;;;7.40
68911;BMP180;55953;51.650;-0.522;2023-04-15T05:31:15;100484.80;;;7.38
68911;BMP180;55953;51.650;-0.522;2023-04-15T05:33:43;100485.60;;;7.40
68911;BMP180;55953;51.650;-0.522;2023-04-15T05:36:10;100488.60;;;7.40
68911;BMP180;55953;51.650;-0.522;2023-04-15T05:38:38;100492.40;;;7.40
68911;BMP180;55953;51.650;-0.522;2023-04-15T05:41:06;100497.00;;;7.40
68911;BMP180;55953;51.650;-0.522;2023-04-15T05:43:34;100506.40;;;7.40
68911;BMP180;55953;51.650;-0.522;2023-04-15T05:46:02;100512.40;;;7.40
68911;BMP180;55953;51.650;-0.522;2023-04-15T05:48:29;100516.00;;;7.44
68911;BMP180;55953;51.650;-0.522;2023-04-15T05:50:57;100522.60;;;7.44
68911;BMP180;55953;51.650;-0.522;2023-04-15T05:53:25;100529.40;;;7.50
68911;BMP180;55953;51.650;-0.522;2023-04-15T05:55:53;100533.80;;;7.50
68911;BMP180;55953;51.650;-0.522;2023-04-15T05:58:21;100533.60;;;7.50
68911;BMP180;55953;51.650;-0.522;2023-04-15T06:00:49;100543.60;;;7.50
68911;BMP180;55953;51.650;-0.522;2023-04-15T06:03:17;100550.00;;;7.50
68911;BMP180;55953;51.650;-0.522;2023-04-15T06:05:45;100549.20;;;7.50
68911;BMP180;55953;51.650;-0.522;2023-04-15T06:08:13;100556.60;;;7.50
68911;BMP180;55953;51.650;-0.522;2023-04-15T06:10:41;100563.80;;;7.50
68911;BMP180;55953;51.650;-0.522;2023-04-15T06:13:08;100570.00;;;7.52
68911;BMP180;55953;51.650;-0.522;2023-04-15T06:15:36;100566.40;;;7.50
68911;BMP180;55953;51.650;-0.522;2023-04-15T06:18:04;100572.00;;;7.50
68911;BMP180;55953;51.650;-0.522;2023-04-15T06:20:32;100580.80;;;7.56
68911;BMP180;55953;51.650;-0.522;2023-04-15T06:23:00;100588.00;;;7.60
68911;BMP180;55953;51.650;-0.522;2023-04-15T06:25:27;100594.20;;;7.60
68911;BMP180;55953;51.650;-0.522;2023-04-15T06:27:55;100603.20;;;7.60
68911;BMP180;55953;51.650;-0.522;2023-04-15T06:30:23;100610.80;;;7.60
68911;BMP180;55953;51.650;-0.522;2023-04-15T06:32:51;100612.60;;;7.60
68911;BMP180;55953;51.650;-0.522;2023-04-15T06:35:20;100618.60;;;7.60
68911;BMP180;55953;51.650;-0.522;2023-04-15T06:37:48;100616.40;;;7.70
68911;BMP180;55953;51.650;-0.522;2023-04-15T06:40:16;100623.40;;;7.70
68911;BMP180;55953;51.650;-0.522;2023-04-15T06:42:44;100630.20;;;7.70
68911;BMP180;55953;51.650;-0.522;2023-04-15T06:45:12;100633.60;;;7.70
68911;BMP180;55953;51.650;-0.522;2023-04-15T06:47:40;100638.60;;;7.70
68911;BMP180;55953;51.650;-0.522;2023-04-15T06:50:09;100646.40;;;7.70
68911;BMP180;55953;51.650;-0.522;2023-04-15T06:52:37;100644.00;;;7.68
68911;BMP180;55953;51.650;-0.522;2023-04-15T06:55:05;100647.40;;;7.68
68911;BMP180;55953;51.650;-0.522;2023-04-15T06:57:34;100649.40;;;7.66
68911;BMP180;55953;51.650;-0.522;2023-04-15T07:00:03;100657.20;;;7.70
68911;BMP180;55953;51.650;-0.522;2023-04-15T07:02:33;100662.60;;;7.70
68911;BMP180;55953;51.650;-0.522;2023-04-15T07:05:01;100674.40;;;7.70
68911;BMP180;55953;51.650;-0.522;2023-04-15T07:07:29;100673.60;;;7.70
68911;BMP180;55953;51.650;-0.522;2023-04-15T07:09:57;100681.00;;;7.70
68911;BMP180;55953;51.650;-0.522;2023-04-15T07:12:25;100687.60;;;7.80
68911;BMP180;55953;51.650;-0.522;2023-04-15T07:14:53;100692.80;;;7.80
68911;BMP180;55953;51.650;-0.522;2023-04-15T07:17:20;100704.20;;;7.80
68911;BMP180;55953;51.650;-0.522;2023-04-15T07:19:48;100701.60;;;7.80
68911;BMP180;55953;51.650;-0.522;2023-04-15T07:22:16;100706.40;;;7.80
68911;BMP180;55953;51.650;-0.522;2023-04-15T07:24:45;100714.80;;;7.82
68911;BMP180;55953;51.650;-0.522;2023-04-15T07:27:13;100716.20;;;7.90
68911;BMP180;55953;51.650;-0.522;2023-04-15T07:29:41;100718.00;;;8.00
68911;BMP180;55953;51.650;-0.522;2023-04-15T07:32:08;100726.80;;;8.06
68911;BMP180;55953;51.650;-0.522;2023-04-15T07:34:37;100730.00;;;8.10
68911;BMP180;55953;51.650;-0.522;2023-04-15T07:37:05;100734.40;;;8.14
68911;BMP180;55953;51.650;-0.522;2023-04-15T07:39:33;100737.80;;;8.20
68911;BMP180;55953;51.650;-0.522;2023-04-15T07:42:00;100741.80;;;8.20
68911;BMP180;55953;51.650;-0.522;2023-04-15T07:44:29;100745.20;;;8.20
68911;BMP180;55953;51.650;-0.522;2023-04-15T07:46:57;100747.40;;;8.20
68911;BMP180;55953;51.650;-0.522;2023-04-15T07:49:24;100755.60;;;8.28
68911;BMP180;55953;51.650;-0.522;2023-04-15T07:51:52;100761.60;;;8.30
68911;BMP180;55953;51.650;-0.522;2023-04-15T07:54:20;100770.40;;;8.32
68911;BMP180;55953;51.650;-0.522;2023-04-15T07:56:48;100775.20;;;8.40
68911;BMP180;55953;51.650;-0.522;2023-04-15T07:59:16;100780.80;;;8.40
68911;BMP180;55953;51.650;-0.522;2023-04-15T08:01:44;100780.20;;;8.50
68911;BMP180;55953;51.650;-0.522;2023-04-15T08:04:12;100779.60;;;8.50
68911;BMP180;55953;51.650;-0.522;2023-04-15T08:06:42;100789.00;;;8.50
68911;BMP180;55953;51.650;-0.522;2023-04-15T08:09:10;100797.40;;;8.60
68911;BMP180;55953;51.650;-0.522;2023-04-15T08:11:38;100801.60;;;8.60
68911;BMP180;55953;51.650;-0.522;2023-04-15T08:14:06;100805.80;;;8.60
68911;BMP180;55953;51.650;-0.522;2023-04-15T08:16:34;100803.20;;;8.70
68911;BMP180;55953;51.650;-0.522;2023-04-15T08:19:02;100806.20;;;8.80
68911;BMP180;55953;51.650;-0.522;2023-04-15T08:21:30;100809.60;;;8.90
68911;BMP180;55953;51.650;-0.522;2023-04-15T08:23:58;100809.60;;;9.00
68911;BMP180;55953;51.650;-0.522;2023-04-15T08:26:26;100811.00;;;9.06
68911;BMP180;55953;51.650;-0.522;2023-04-15T08:28:54;100816.40;;;9.10
68911;BMP180;55953;51.650;-0.522;2023-04-15T08:31:25;100825.40;;;9.02
68911;BMP180;55953;51.650;-0.522;2023-04-15T08:33:53;100821.60;;;9.10
68911;BMP180;55953;51.650;-0.522;2023-04-15T08:36:23;100824.80;;;9.20
68911;BMP180;55953;51.650;-0.522;2023-04-15T08:38:51;100828.40;;;9.30
68911;BMP180;55953;51.650;-0.522;2023-04-15T08:41:24;100831.20;;;9.50
68911;BMP180;55953;51.650;-0.522;2023-04-15T08:44:00;100832.00;;;9.70
68911;BMP180;55953;51.650;-0.522;2023-04-15T08:46:31;100839.40;;;9.62
68911;BMP180;55953;51.650;-0.522;2023-04-15T08:49:03;100854.40;;;9.80
68911;BMP180;55953;51.650;-0.522;2023-04-15T08:51:31;100853.40;;;9.86
68911;BMP180;55953;51.650;-0.522;2023-04-15T08:54:01;100849.80;;;9.94
68911;BMP180;55953;51.650;-0.522;2023-04-15T08:56:31;100856.20;;;10.10
68911;BMP180;55953;51.650;-0.522;2023-04-15T08:59:00;100861.60;;;10.10
68911;BMP180;55953;51.650;-0.522;2023-04-15T09:01:28;100861.80;;;10.20
68911;BMP180;55953;51.650;-0.522;2023-04-15T09:03:58;100864.20;;;10.40
68911;BMP180;55953;51.650;-0.522;2023-04-15T09:06:26;100871.20;;;10.70
68911;BMP180;55953;51.650;-0.522;2023-04-15T09:08:54;100874.80;;;10.86
68911;BMP180;55953;51.650;-0.522;2023-04-15T09:11:22;100873.60;;;10.88
68911;BMP180;55953;51.650;-0.522;2023-04-15T09:13:50;100878.20;;;11.18
68911;BMP180;55953;51.650;-0.522;2023-04-15T09:16:18;100883.60;;;11.24
68911;BMP180;55953;51.650;-0.522;2023-04-15T09:18:46;100888.40;;;11.22
68911;BMP180;55953;51.650;-0.522;2023-04-15T09:21:16;100887.00;;;11.20
68911;BMP180;55953;51.650;-0.522;2023-04-15T09:23:59;100888.00;;;11.28
68911;BMP180;55953;51.650;-0.522;2023-04-15T09:26:31;100890.20;;;11.50
68911;BMP180;55953;51.650;-0.522;2023-04-15T09:29:09;100899.40;;;11.50
68911;BMP180;55953;51.650;-0.522;2023-04-15T09:31:40;100906.00;;;11.60
68911;BMP180;55953;51.650;-0.522;2023-04-15T09:34:09;100908.60;;;11.62
68911;BMP180;55953;51.650;-0.522;2023-04-15T09:36:56;100914.40;;;11.70
68911;BMP180;55953;51.650;-0.522;2023-04-15T09:39:24;100910.20;;;11.50
68911;BMP180;55953;51.650;-0.522;2023-04-15T09:42:07;100920.00;;;11.50
68911;BMP180;55953;51.650;-0.522;2023-04-15T09:44:36;100924.80;;;11.36
68911;BMP180;55953;51.650;-0.522;2023-04-15T09:47:04;100930.00;;;11.32
68911;BMP180;55953;51.650;-0.522;2023-04-15T09:49:32;100933.80;;;11.40
68911;BMP180;55953;51.650;-0.522;2023-04-15T09:52:01;100938.00;;;11.62
68911;BMP180;55953;51.650;-0.522;2023-04-15T09:54:36;100939.60;;;11.78
68911;BMP180;55953;51.650;-0.522;2023-04-15T09:57:08;100949.20;;;11.80
68911;BMP180;55953;51.650;-0.522;2023-04-15T09:59:37;100960.60;;;11.72
68911;BMP180;55953;51.650;-0.522;2023-04-15T10:02:05;100967.00;;;11.56
68911;BMP180;55953;51.650;-0.522;2023-04-15T10:04:39;100973.20;;;11.50
68911;BMP180;55953;51.650;-0.522;2023-04-15T10:07:11;100983.20;;;11.30
68911;BMP180;55953;51.650;-0.522;2023-04-15T10:09:39;100984.40;;;11.30
68911;BMP180;55953;51.650;-0.522;2023-04-15T10:12:07;100994.00;;;11.30
68911;BMP180;55953;51.650;-0.522;2023-04-15T10:14:37;101002.80;;;11.20
68911;BMP180;55953;51.650;-0.522;2023-04-15T10:17:06;101008.60;;;11.10
68911;BMP180;55953;51.650;-0.522;2023-04-15T10:19:36;101003.00;;;11.30
68911;BMP180;55953;51.650;-0.522;2023-04-15T10:22:05;101004.00;;;11.50
68911;BMP180;55953;51.650;-0.522;2023-04-15T10:24:34;101011.00;;;11.70
68911;BMP180;55953;51.650;-0.522;2023-04-15T10:27:04;101010.60;;;11.80
68911;BMP180;55953;51.650;-0.522;2023-04-15T10:29:33;101013.20;;;11.90
68911;BMP180;55953;51.650;-0.522;2023-04-15T10:32:02;101019.60;;;12.10
68911;BMP180;55953;51.650;-0.522;2023-04-15T10:34:31;101019.60;;;12.08
68911;BMP180;55953;51.650;-0.522;2023-04-15T10:37:04;101029.20;;;12.06
68911;BMP180;55953;51.650;-0.522;2023-04-15T10:42:15;101044.20;;;11.74
68911;BMP180;55953;51.650;-0.522;2023-04-15T10:44:51;101042.60;;;11.50
68911;BMP180;55953;51.650;-0.522;2023-04-15T10:47:23;101046.20;;;11.60
68911;BMP180;55953;51.650;-0.522;2023-04-15T10:49:57;101048.20;;;11.80
68911;BMP180;55953;51.650;-0.522;2023-04-15T10:52:27;101047.60;;;11.80
68911;BMP180;55953;51.650;-0.522;2023-04-15T10:55:23;101049.40;;;11.80
68911;BMP180;55953;51.650;-0.522;2023-04-15T10:57:58;101055.60;;;11.70
68911;BMP180;55953;51.650;-0.522;2023-04-15T11:00:30;101050.00;;;11.80
68911;BMP180;55953;51.650;-0.522;2023-04-15T11:03:07;101052.60;;;11.90
68911;BMP180;55953;51.650;-0.522;2023-04-15T11:08:07;101054.80;;;12.44
68911;BMP180;55953;51.650;-0.522;2023-04-15T11:15:39;101061.00;;;12.80
68911;BMP180;55953;51.650;-0.522;2023-04-15T11:18:24;101068.00;;;12.68
68911;BMP180;55953;51.650;-0.522;2023-04-15T11:20:54;101068.40;;;12.80
68911;BMP180;55953;51.650;-0.522;2023-04-15T11:23:49;101075.60;;;12.90
68911;BMP180;55953;51.650;-0.522;2023-04-15T11:26:17;101079.00;;;13.00
68911;BMP180;55953;51.650;-0.522;2023-04-15T11:28:45;101084.80;;;13.00
68911;BMP180;55953;51.650;-0.522;2023-04-15T11:31:17;101085.20;;;13.08
68911;BMP180;55953;51.650;-0.522;2023-04-15T11:34:04;101098.80;;;12.92
68911;BMP180;55953;51.650;-0.522;2023-04-15T11:36:32;101096.60;;;13.00
68911;BMP180;55953;51.650;-0.522;2023-04-15T11:39:00;101104.20;;;13.10
68911;BMP180;55953;51.650;-0.522;2023-04-15T11:41:28;101105.00;;;13.00
68911;BMP180;55953;51.650;-0.522;2023-04-15T11:43:56;101112.00;;;13.20
68911;BMP180;55953;51.650;-0.522;2023-04-15T11:46:29;101107.40;;;13.18
68911;BMP180;55953;51.650;-0.522;2023-04-15T11:48:58;101113.00;;;13.30
68911;BMP180;55953;51.650;-0.522;2023-04-15T11:51:32;101116.20;;;13.20
68911;BMP180;55953;51.650;-0.522;2023-04-15T11:54:00;101121.80;;;13.10
68911;BMP180;55953;51.650;-0.522;2023-04-15T11:56:29;101126.40;;;13.12
68911;BMP180;55953;51.650;-0.522;2023-04-15T11:58:58;101133.80;;;13.20
68911;BMP180;55953;51.650;-0.522;2023-04-15T12:01:40;101138.20;;;13.22
68911;BMP180;55953;51.650;-0.522;2023-04-15T12:04:16;101144.00;;;13.30
68911;BMP180;55953;51.650;-0.522;2023-04-15T12:06:52;101141.00;;;13.40
68911;BMP180;55953;51.650;-0.522;2023-04-15T12:09:20;101143.80;;;13.38
68911;BMP180;55953;51.650;-0.522;2023-04-15T12:11:50;101148.00;;;13.46
68911;BMP180;55953;51.650;-0.522;2023-04-15T12:17:05;101156.00;;;13.60
68911;BMP180;55953;51.650;-0.522;2023-04-15T12:19:41;101152.20;;;13.60
68911;BMP180;55953;51.650;-0.522;2023-04-15T12:22:15;101159.20;;;13.66
68911;BMP180;55953;51.650;-0.522;2023-04-15T12:24:43;101151.60;;;13.80
68911;BMP180;55953;51.650;-0.522;2023-04-15T12:27:16;101155.60;;;13.84
68911;BMP180;55953;51.650;-0.522;2023-04-15T12:29:44;101161.20;;;13.92
68911;BMP180;55953;51.650;-0.522;2023-04-15T12:32:13;101157.60;;;14.18
68911;BMP180;55953;51.650;-0.522;2023-04-15T12:34:48;101160.00;;;14.10
68911;BMP180;55953;51.650;-0.522;2023-04-15T12:37:16;101161.60;;;14.10
68911;BMP180;55953;51.650;-0.522;2023-04-15T12:39:48;101168.80;;;14.30
68911;BMP180;55953;51.650;-0.522;2023-04-15T12:42:17;101165.40;;;14.50
68911;BMP180;55953;51.650;-0.522;2023-04-15T12:44:45;101164.00;;;14.60
68911;BMP180;55953;51.650;-0.522;2023-04-15T12:47:13;101167.40;;;14.70
68911;BMP180;55953;51.650;-0.522;2023-04-15T12:49:42;101165.60;;;14.70
68911;BMP180;55953;51.650;-0.522;2023-04-15T12:52:10;101164.80;;;14.60
68911;BMP180;55953;51.650;-0.522;2023-04-15T12:54:38;101168.40;;;14.60
68911;BMP180;55953;51.650;-0.522;2023-04-15T12:57:06;101168.60;;;14.70
68911;BMP180;55953;51.650;-0.522;2023-04-15T12:59:35;101167.00;;;14.90
68911;BMP180;55953;51.650;-0.522;2023-04-15T13:02:03;101168.80;;;15.10
68911;BMP180;55953;51.650;-0.522;2023-04-15T13:04:31;101169.20;;;15.00
68911;BMP180;55953;51.650;-0.522;2023-04-15T13:07:01;101172.80;;;14.72
68911;BMP180;55953;51.650;-0.522;2023-04-15T13:09:28;101174.80;;;14.40
68911;BMP180;55953;51.650;-0.522;2023-04-15T13:11:57;101178.00;;;14.48
68911;BMP180;55953;51.650;-0.522;2023-04-15T13:14:25;101181.40;;;14.60
68911;BMP180;55953;51.650;-0.522;2023-04-15T13:16:53;101181.40;;;14.70
68911;BMP180;55953;51.650;-0.522;2023-04-15T13:19:21;101187.20;;;14.80
68911;BMP180;55953;51.650;-0.522;2023-04-15T13:21:49;101193.40;;;14.76
68911;BMP180;55953;51.650;-0.522;2023-04-15T13:24:17;101187.60;;;14.80
68911;BMP180;55953;51.650;-0.522;2023-04-15T13:26:46;101186.20;;;14.98
68911;BMP180;55953;51.650;-0.522;2023-04-15T13:29:16;101195.40;;;15.20
68911;BMP180;55953;51.650;-0.522;2023-04-15T13:31:44;101193.40;;;15.30
68911;BMP180;55953;51.650;-0.522;2023-04-15T13:34:12;101196.80;;;15.30
68911;BMP180;55953;51.650;-0.522;2023-04-15T13:36:40;101200.80;;;15.40
68911;BMP180;55953;51.650;-0.522;2023-04-15T13:39:08;101210.80;;;15.50
68911;BMP180;55953;51.650;-0.522;2023-04-15T13:41:36;101214.00;;;15.42
68911;BMP180;55953;51.650;-0.522;2023-04-15T13:44:04;101218.40;;;15.40
68911;BMP180;55953;51.650;-0.522;2023-04-15T13:46:33;101220.60;;;15.30
68911;BMP180;55953;51.650;-0.522;2023-04-15T13:49:01;101229.80;;;15.20
68911;BMP180;55953;51.650;-0.522;2023-04-15T13:51:28;101224.80;;;15.12
68911;BMP180;55953;51.650;-0.522;2023-04-15T13:53:57;101223.80;;;15.10
68911;BMP180;55953;51.650;-0.522;2023-04-15T13:56:25;101214.00;;;15.30
68911;BMP180;55953;51.650;-0.522;2023-04-15T13:58:53;101210.40;;;15.52
68911;BMP180;55953;51.650;-0.522;2023-04-15T14:01:25;101215.40;;;15.70
68911;BMP180;55953;51.650;-0.522;2023-04-15T14:03:54;101214.80;;;15.70
68911;BMP180;55953;51.650;-0.522;2023-04-15T14:06:23;101217.80;;;15.70
68911;BMP180;55953;51.650;-0.522;2023-04-15T14:08:51;101223.20;;;15.86
68911;BMP180;55953;51.650;-0.522;2023-04-15T14:11:19;101221.00;;;16.00
68911;BMP180;55953;51.650;-0.522;2023-04-15T14:13:47;101225.40;;;16.10
68911;BMP180;55953;51.650;-0.522;2023-04-15T14:16:15;101229.00;;;16.20